createdAt,value
2022-08-24T00:00:39.148Z,3.03
2022-08-24T00:03:07.237Z,3.30
2022-08-24T00:05:35.322Z,3.00
2022-08-24T00:08:05.436Z,2.90
2022-08-24T00:10:33.384Z,3.13
2022-08-24T00:13:01.507Z,3.40
2022-08-24T00:15:29.667Z,3.25
2022-08-24T00:17:57.513Z,3.55
2022-08-24T00:20:25.442Z,2.97
2022-08-24T00:22:53.640Z,3.20
2022-08-24T00:25:22.903Z,3.40
2022-08-24T00:27:51.043Z,3.20
2022-08-24T00:30:21.835Z,3.00
2022-08-24T00:32:49.960Z,3.28
2022-08-24T00:35:19.829Z,3.45
2022-08-24T00:37:49.463Z,3.10
2022-08-24T00:40:20.314Z,3.17
2022-08-24T00:42:50.644Z,3.35
2022-08-24T00:45:19.994Z,3.53
2022-08-24T00:47:52.924Z,4.10
2022-08-24T00:50:24.760Z,4.50
2022-08-24T00:52:57.933Z,4.60
2022-08-24T00:55:30.450Z,4.78
2022-08-24T00:58:04.847Z,4.78
2022-08-24T01:00:41.070Z,4.97
2022-08-24T01:03:14.105Z,5.05
2022-08-24T01:05:42.295Z,4.93
2022-08-24T01:08:13.224Z,5.07
2022-08-24T01:10:45.539Z,4.90
2022-08-24T01:13:16.002Z,4.80
2022-08-24T01:15:46.704Z,4.72
2022-08-24T01:18:35.403Z,3.80
2022-08-24T01:21:11.118Z,3.80
2022-08-24T01:23:42.741Z,3.60
2022-08-24T01:26:13.528Z,3.83
2022-08-24T01:28:46.893Z,3.65
2022-08-24T01:31:16.322Z,3.78
2022-08-24T01:33:44.169Z,3.65
2022-08-24T01:36:21.090Z,4.60
2022-08-24T01:39:01.782Z,4.80
2022-08-24T01:41:29.854Z,4.57
2022-08-24T01:43:59.950Z,4.57
2022-08-24T01:46:29.563Z,4.30
2022-08-24T01:48:58.826Z,3.65
2022-08-24T01:51:27.302Z,4.05
2022-08-24T01:53:55.529Z,3.60
2022-08-24T01:56:24.806Z,3.60
2022-08-24T01:58:53.980Z,3.63
2022-08-24T02:01:22.483Z,4.28
2022-08-24T02:03:51.799Z,3.72
2022-08-24T02:06:21.228Z,4.13
2022-08-24T02:08:49.284Z,3.72
2022-08-24T02:11:17.229Z,3.53
2022-08-24T02:13:46.408Z,3.80
2022-08-24T02:16:15.223Z,3.80
2022-08-24T02:18:43.237Z,3.80
2022-08-24T02:21:12.885Z,4.10
2022-08-24T02:23:42.451Z,4.63
2022-08-24T02:26:12.347Z,5.53
2022-08-24T02:28:41.036Z,4.07
2022-08-24T02:31:13.355Z,4.18
2022-08-24T02:33:42.148Z,3.92
2022-08-24T02:36:25.619Z,4.20
2022-08-24T02:38:55.500Z,4.00
2022-08-24T02:41:25.430Z,4.03
2022-08-24T02:43:54.362Z,3.63
2022-08-24T02:46:26.379Z,4.05
2022-08-24T02:48:58.020Z,3.75
2022-08-24T02:51:45.414Z,4.13
2022-08-24T02:54:18.726Z,4.18
2022-08-24T02:56:49.281Z,3.45
2022-08-24T02:59:17.858Z,3.92
2022-08-24T03:01:49.920Z,3.88
2022-08-24T03:04:19.197Z,4.30
2022-08-24T03:06:47.157Z,4.10
2022-08-24T03:09:15.398Z,3.80
2022-08-24T03:11:45.528Z,4.30
2022-08-24T03:14:14.458Z,4.75
2022-08-24T03:16:42.884Z,4.50
2022-08-24T03:19:13.384Z,4.30
2022-08-24T03:21:43.560Z,4.40
2022-08-24T03:24:12.781Z,4.00
2022-08-24T03:26:44.136Z,4.50
2022-08-24T03:29:13.860Z,3.78
2022-08-24T03:31:43.842Z,4.00
2022-08-24T03:34:14.102Z,4.32
2022-08-24T03:36:45.874Z,4.15
2022-08-24T03:39:15.533Z,4.00
2022-08-24T03:41:43.667Z,4.28
2022-08-24T03:44:11.722Z,4.00
2022-08-24T03:46:39.765Z,4.30
2022-08-24T03:49:10.298Z,4.60
2022-08-24T03:51:40.430Z,4.30
2022-08-24T03:54:12.108Z,4.68
2022-08-24T03:56:41.540Z,5.03
2022-08-24T03:59:10.914Z,4.97
2022-08-24T04:01:41.967Z,4.63
2022-08-24T04:04:10.787Z,4.57
2022-08-24T04:06:44.203Z,4.68
2022-08-24T04:09:12.683Z,4.82
2022-08-24T04:11:45.510Z,4.40
2022-08-24T04:14:27.388Z,4.03
2022-08-24T04:17:05.583Z,4.53
2022-08-24T04:19:38.369Z,4.40
2022-08-24T04:22:07.664Z,4.63
2022-08-24T04:24:35.799Z,4.30
2022-08-24T04:27:03.743Z,3.97
2022-08-24T04:29:33.872Z,4.53
2022-08-24T04:32:03.030Z,4.40
2022-08-24T04:34:31.185Z,4.78
2022-08-24T04:36:59.829Z,5.10
2022-08-24T04:39:30.103Z,4.72
2022-08-24T04:42:20.848Z,4.45
2022-08-24T04:44:48.792Z,4.30
2022-08-24T04:47:16.912Z,4.03
2022-08-24T04:49:44.820Z,4.63
2022-08-24T04:52:12.678Z,4.10
2022-08-24T04:54:44.169Z,4.15
2022-08-24T04:57:18.496Z,4.30
2022-08-24T04:59:48.414Z,4.40
2022-08-24T05:02:16.456Z,4.13
2022-08-24T05:04:48.257Z,5.18
2022-08-24T05:07:17.949Z,5.13
2022-08-24T05:09:47.210Z,5.05
2022-08-24T05:12:15.073Z,4.53
2022-08-24T05:14:52.859Z,4.90
2022-08-24T05:17:20.828Z,4.90
2022-08-24T05:19:49.151Z,4.57
2022-08-24T05:22:17.609Z,5.22
2022-08-24T05:24:51.604Z,4.40
2022-08-24T05:27:19.994Z,4.85
2022-08-24T05:29:54.062Z,4.50
2022-08-24T05:32:22.213Z,4.40
2022-08-24T05:34:51.319Z,4.18
2022-08-24T05:37:19.691Z,4.43
2022-08-24T05:40:08.384Z,4.30
2022-08-24T05:42:39.566Z,4.20
2022-08-24T05:45:10.823Z,4.40
2022-08-24T05:47:38.818Z,4.05
2022-08-24T05:50:18.748Z,4.30
2022-08-24T05:52:46.767Z,4.35
2022-08-24T05:55:16.251Z,4.20
2022-08-24T05:57:45.461Z,4.20
2022-08-24T06:00:18.787Z,4.20
2022-08-24T06:02:52.833Z,4.40
2022-08-24T06:05:21.927Z,4.00
2022-08-24T06:07:50.956Z,4.68
2022-08-24T06:10:36.387Z,4.32
2022-08-24T06:13:06.318Z,4.90
2022-08-24T06:15:34.957Z,4.53
2022-08-24T06:18:04.026Z,3.85
2022-08-24T06:20:32.933Z,3.78
2022-08-24T06:23:00.856Z,4.10
2022-08-24T06:28:25.351Z,3.83
2022-08-24T06:31:02.625Z,4.20
2022-08-24T06:33:31.182Z,3.53
2022-08-24T06:36:00.058Z,3.47
2022-08-24T06:38:28.211Z,3.75
2022-08-24T06:40:57.852Z,3.80
2022-08-24T06:43:26.053Z,3.40
2022-08-24T06:45:56.003Z,3.35
2022-08-24T06:48:34.858Z,2.95
2022-08-24T06:51:03.021Z,3.50
2022-08-24T06:53:30.879Z,3.35
2022-08-24T06:56:00.655Z,3.30
2022-08-24T06:58:32.740Z,3.00
2022-08-24T07:01:10.229Z,2.90
2022-08-24T07:03:38.743Z,2.65
2022-08-24T07:06:26.169Z,2.95
2022-08-24T07:08:59.328Z,2.95
2022-08-24T07:11:32.249Z,2.75
2022-08-24T07:14:00.176Z,2.92
2022-08-24T07:16:28.609Z,2.95
2022-08-24T07:19:02.404Z,2.78
2022-08-24T07:21:32.257Z,2.80
2022-08-24T07:24:02.308Z,2.95
2022-08-24T07:26:35.767Z,2.90
2022-08-24T07:29:07.768Z,2.88
2022-08-24T07:31:46.005Z,2.58
2022-08-24T07:34:31.497Z,2.83
2022-08-24T07:37:00.457Z,2.50
2022-08-24T07:39:30.287Z,2.70
2022-08-24T07:42:12.631Z,2.53
2022-08-24T07:44:43.274Z,2.65
2022-08-24T07:47:36.500Z,2.75
2022-08-24T07:50:00.376Z,2.63
2022-08-24T07:52:28.933Z,2.55
2022-08-24T07:54:57.371Z,2.63
2022-08-24T07:57:26.651Z,2.60
2022-08-24T07:59:56.023Z,3.13
2022-08-24T08:02:23.995Z,2.47
2022-08-24T08:04:56.455Z,2.78
2022-08-24T08:07:24.521Z,2.58
2022-08-24T08:09:52.379Z,2.55
2022-08-24T08:12:20.701Z,2.25
2022-08-24T08:14:58.428Z,2.63
2022-08-24T08:17:26.492Z,2.30
2022-08-24T08:19:55.342Z,2.25
2022-08-24T08:22:42.481Z,2.75
2022-08-24T08:25:31.507Z,2.58
2022-08-24T08:28:08.026Z,2.40
2022-08-24T08:30:48.258Z,2.20
2022-08-24T08:33:16.358Z,2.38
2022-08-24T08:35:44.655Z,2.60
2022-08-24T08:38:13.174Z,2.47
2022-08-24T08:40:55.383Z,2.05
